気象予報士の航空気象 2015年04月

*All archives   *Admin

スポンサーサイト

上記の広告は1ヶ月以上更新のないブログに表示されています。
新しい記事を書く事で広告が消せます。
--:--  |  スポンサー広告  |  EDIT  |  Top↑

2015.04.15 (Wed)

広島空港のMETAR

RJOA 141200Z 21004KT 6000 PRFG FEW000 SCT015 08/08 Q1006
RJOA 141140Z 21003KT 160V270 5000 R28/P1800N PRFG BR FEW000 SCT003 BKN005 08/08 Q1007 RMK 1ST000 4ST003 5ST005 A2974 FG BANK E-S
RJOA 141118Z 15003KT 5000 PRFG BR FEW000 SCT005 BKN012 09/09 Q1007 RMK 1ST000 4ST005 6CU012 A2974 FG BANK E-S
RJOA 141108Z VRB02KT 4000 R28/0300VP1800D -SHRA PRFG FEW000 SCT005 BKN012 09/08 Q1006 RMK 1ST000 4ST005 6CU012 A2973 1500E FG E-S
RJOA 141100Z VRB02KT 6000 -SHRA PRFG FEW000 SCT012 BKN020 09/08 Q1006
RJOA 141015Z 28005KT 4000 -SHRA PRFG BR FEW000 SCT012 BKN020 09/08 Q1006 RMK 1ST000 4CU012 6CU020 A2971 FG BANK SE-S
RJOA 141000Z 31006KT 3000 SHRA PRFG BR FEW000 BKN012 BKN020 09/07 Q1006
RJOA 140949Z 33006KT 280V360 6000 -SHRA PRFG FEW000 SCT012 BKN020 09/07 Q1006 RMK 1ST000 4CU012 6CU020 A2972 FG BANK SE-S
RJOA 140923Z VRB02KT 4000 SHRA BR FEW002 BKN012 BKN020 09/07 Q1006 RMK 1ST002 5CU012 6CU020 A2971
RJOA 140900Z 32010KT 9999 -SHRA FEW015 BKN020 BKN050 10/06 Q1005
RJOA 140841Z 31010KT 270V360 9999 -SHRA FEW015 BKN020 BKN050 11/07 Q1005 RMK 2CU015 5CU020 6SC050 A2969
RJOA 140800Z 23006KT 160V280 9999 FEW015 SCT035 BKN050 12/07 Q1005
RJOA 140700Z 20006KT 140V260 9999 FEW020 BKN035 15/06 Q1004
RJOA 140600Z 20006KT 150V240 9999 FEW020 BKN035 16/05 Q1005
RJOA 140500Z 27008KT 240V320 9999 FEW020 BKN030 17/06 Q1006
RJOA 140400Z 25010KT 200V280 9999 FEW015 SCT020 BKN045 16/08 Q1007
RJOA 140300Z 19008KT 140V250 9999 FEW015 BKN020 BKN/// 15/09 Q1007
RJOA 140200Z 20006KT 140V250 9999 FEW010 BKN015 BKN/// 15/09 Q1008
RJOA 140100Z 16004KT 120V230 9999 FEW007 SCT010 BKN015 14/10 Q1009
スポンサーサイト
21:53  |  時事  |  TB(0)  |  CM(0)  |  EDIT  |  Top↑

2015.04.03 (Fri)

春の嵐

午前中、温暖前線による降雨の後、南よりの風が強くなり始めました。

RJTT 030700Z 21029G40KT 9999 FEW014 BKN150 BKN170 20/17 Q1005 NOSIG RMK 2ST014 6AC150 7AC170 A2969

RJAA 030630Z 21020G33KT 170V240 9999 BLDU SCT020 BKN030 21/16 Q1005 WS R16R WS R16L NOSIG RMK 3SC020 7SC030 A2969 4500NE

地表から1000-2000mあたりで風が強く、地表面で吹く風のため、大揺れ。

着陸復行、管制の混雑による上空待機、目的地変更、欠航につながります。
17:01  |  未分類  |  TB(0)  |  CM(0)  |  EDIT  |  Top↑
 | BLOGTOP | 
上記広告は1ヶ月以上更新のないブログに表示されています。新しい記事を書くことで広告を消せます。